Time;durP1;ratioP1;P1;durP2;ratioP2;P2;SDS_P1;SDS_P2;PMS_P1;PMS_P2;Temp;Humidity;BMP_temperature;BMP_pressure;BME280_temperature;BME280_humidity;BME280_pressure;Samples;Min_cycle;Max_cycle;Signal;HPM_P1;HPM_P2
2021/11/23 00:00:11;;;;;;;;;;;23.70;51.20;;;;;;1517839;77;1935;-65
2021/11/23 00:02:13;;;;;;;;;;;23.60;51.20;;;;;;1519888;77;863;-65
2021/11/23 00:04:15;;;;;;;;;;;23.70;51.40;;;;;;1532386;76;767;-68
2021/11/23 00:06:17;;;;;;;;;;;23.60;51.30;;;;;;1529566;76;814;-66
2021/11/23 00:08:20;;;;;;;;;;;23.60;51.40;;;;;;1529439;77;1150;-65
2021/11/23 00:10:22;;;;;;;;;;;23.70;51.60;;;;;;1521636;76;805;-65
2021/11/23 00:12:24;;;;;;;;;;;23.60;51.40;;;;;;1530187;77;767;-65
2021/11/23 00:14:26;;;;;;;;;;;23.70;51.50;;;;;;1523940;77;835;-63
2021/11/23 00:16:28;;;;;;;;;;;23.70;51.50;;;;;;1523181;77;685;-66
2021/11/23 00:18:30;;;;;;;;;;;23.70;51.50;;;;;;1509143;77;1110;-67
2021/11/23 00:20:32;;;;;;;;;;;23.70;51.50;;;;;;1521062;77;1938;-68
2021/11/23 00:22:34;;;;;;;;;;;23.60;51.40;;;;;;1519452;77;754;-67
2021/11/23 00:24:36;;;;;;;;;;;23.70;51.50;;;;;;1515753;77;1033;-66
2021/11/23 00:26:38;;;;;;;;;;;23.70;51.40;;;;;;1513101;77;767;-67
2021/11/23 00:28:40;;;;;;;;;;;23.60;51.20;;;;;;1513420;77;1134;-66
2021/11/23 00:30:43;;;;;;;;;;;23.60;51.20;;;;;;1516151;77;740;-65
2021/11/23 00:32:48;;;;;;;;;;;23.70;51.30;;;;;;1521703;77;800;-68
2021/11/23 00:34:49;;;;;;;;;;;23.60;51.10;;;;;;1514242;77;1667;-66
2021/11/23 00:36:51;;;;;;;;;;;23.70;51.30;;;;;;1515451;77;791;-66
2021/11/23 00:38:53;;;;;;;;;;;23.70;51.20;;;;;;1517259;77;1115;-66
2021/11/23 00:40:55;;;;;;;;;;;23.70;51.20;;;;;;1512282;77;1960;-68
2021/11/23 00:43:03;;;;;;;;;;;23.60;51.10;;;;;;1508648;77;778;-66
2021/11/23 00:45:00;;;;;;;;;;;23.60;51.00;;;;;;1521497;77;1657;-65
2021/11/23 00:47:02;;;;;;;;;;;23.70;51.20;;;;;;1515565;76;825;-66
2021/11/23 00:49:04;;;;;;;;;;;23.60;51.10;;;;;;1520570;76;1124;-65
2021/11/23 00:51:06;;;;;;;;;;;23.60;51.10;;;;;;1521540;77;576;-66
2021/11/23 00:53:08;;;;;;;;;;;23.60;51.20;;;;;;1512295;77;778;-65
2021/11/23 00:55:10;;;;;;;;;;;23.60;51.30;;;;;;1521966;77;750;-67
2021/11/23 00:57:12;;;;;;;;;;;23.70;51.60;;;;;;1520041;77;686;-65
2021/11/23 00:59:14;;;;;;;;;;;23.60;51.30;;;;;;1513057;77;1177;-65
2021/11/23 01:01:16;;;;;;;;;;;23.70;51.50;;;;;;1512580;77;1949;-61
2021/11/23 01:03:18;;;;;;;;;;;23.60;51.30;;;;;;1517529;77;762;-65
2021/11/23 01:05:20;;;;;;;;;;;23.60;51.30;;;;;;1520082;77;677;-65
2021/11/23 01:07:22;;;;;;;;;;;23.60;51.30;;;;;;1513964;77;841;-65
2021/11/23 01:09:24;;;;;;;;;;;23.60;51.40;;;;;;1514057;76;1121;-66
2021/11/23 01:11:26;;;;;;;;;;;23.60;51.40;;;;;;1511406;77;711;-65
2021/11/23 01:13:27;;;;;;;;;;;23.60;51.30;;;;;;1520890;77;789;-66
2021/11/23 01:15:29;;;;;;;;;;;23.60;51.40;;;;;;1512561;77;694;-66
2021/11/23 01:17:31;;;;;;;;;;;23.60;51.40;;;;;;1513412;77;1124;-67
2021/11/23 01:19:33;;;;;;;;;;;23.60;51.50;;;;;;1509800;77;727;-66
2021/11/23 01:21:35;;;;;;;;;;;23.70;51.60;;;;;;1515895;77;1946;-66
2021/11/23 01:23:37;;;;;;;;;;;23.60;51.50;;;;;;1524784;76;750;-66
2021/11/23 01:25:39;;;;;;;;;;;23.60;51.40;;;;;;1520028;76;839;-65
2021/11/23 01:27:41;;;;;;;;;;;23.60;51.50;;;;;;1522107;76;1118;-65
2021/11/23 01:29:43;;;;;;;;;;;23.60;51.50;;;;;;1516383;77;792;-65
2021/11/23 01:31:44;;;;;;;;;;;23.60;51.40;;;;;;1517706;77;714;-65
2021/11/23 01:33:46;;;;;;;;;;;23.70;51.60;;;;;;1511526;76;756;-66
2021/11/23 01:35:48;;;;;;;;;;;23.60;51.50;;;;;;1514738;76;733;-67
2021/11/23 01:37:50;;;;;;;;;;;23.60;51.40;;;;;;1513278;77;1125;-67
2021/11/23 01:39:53;;;;;;;;;;;23.70;51.50;;;;;;1513434;77;749;-64
2021/11/23 01:41:55;;;;;;;;;;;23.60;51.40;;;;;;1513084;77;1915;-65
2021/11/23 01:43:57;;;;;;;;;;;23.60;51.30;;;;;;1512195;77;859;-66
2021/11/23 01:45:59;;;;;;;;;;;23.70;51.40;;;;;;1509789;77;790;-64
2021/11/23 01:48:01;;;;;;;;;;;23.60;51.30;;;;;;1517969;77;1202;-65
2021/11/23 01:50:03;;;;;;;;;;;23.60;51.30;;;;;;1511154;77;755;-65
2021/11/23 01:52:05;;;;;;;;;;;23.60;51.30;;;;;;1513730;77;737;-65
2021/11/23 01:54:07;;;;;;;;;;;23.60;51.30;;;;;;1516142;77;837;-67
2021/11/23 01:56:09;;;;;;;;;;;23.70;51.40;;;;;;1510795;77;826;-66
2021/11/23 01:58:12;;;;;;;;;;;23.70;51.40;;;;;;1518093;77;1186;-67
2021/11/23 02:00:14;;;;;;;;;;;23.60;51.30;;;;;;1523363;77;821;-65
2021/11/23 02:02:16;;;;;;;;;;;23.60;51.30;;;;;;1508302;77;1929;-64
2021/11/23 02:04:18;;;;;;;;;;;23.60;51.30;;;;;;1512829;77;773;-65
2021/11/23 02:06:19;;;;;;;;;;;23.60;51.40;;;;;;1509559;77;771;-65
2021/11/23 02:08:21;;;;;;;;;;;23.60;51.30;;;;;;1511941;77;1141;-65
2021/11/23 02:10:23;;;;;;;;;;;23.60;51.30;;;;;;1512889;77;786;-65
2021/11/23 02:12:26;;;;;;;;;;;23.70;51.40;;;;;;1509363;77;777;-64
2021/11/23 02:14:28;;;;;;;;;;;23.60;51.20;;;;;;1513990;77;781;-66
2021/11/23 02:16:33;;;;;;;;;;;23.60;51.30;;;;;;1513146;77;795;-67
2021/11/23 02:18:36;;;;;;;;;;;23.60;51.20;;;;;;1509771;77;1114;-65
2021/11/23 02:20:38;;;;;;;;;;;23.60;51.30;;;;;;1516656;77;1913;-65
2021/11/23 02:22:40;;;;;;;;;;;23.60;51.30;;;;;;1514116;77;913;-65
2021/11/23 02:24:41;;;;;;;;;;;23.60;51.30;;;;;;1517581;77;696;-65
2021/11/23 02:26:43;;;;;;;;;;;23.60;51.20;;;;;;1517247;77;845;-66
2021/11/23 02:28:45;;;;;;;;;;;23.60;51.20;;;;;;1516297;76;1100;-66
2021/11/23 02:30:48;;;;;;;;;;;23.60;51.20;;;;;;1528351;76;794;-65
2021/11/23 02:32:53;;;;;;;;;;;23.60;51.20;;;;;;1510380;76;695;-65
2021/11/23 02:34:55;;;;;;;;;;;23.60;51.20;;;;;;1529307;77;720;-64
2021/11/23 02:36:57;;;;;;;;;;;23.60;51.10;;;;;;1532404;77;674;-65
2021/11/23 02:38:59;;;;;;;;;;;23.60;51.10;;;;;;1528778;77;1170;-65
2021/11/23 02:41:01;;;;;;;;;;;23.60;51.20;;;;;;1529038;77;1944;-65
2021/11/23 02:43:03;;;;;;;;;;;23.60;51.20;;;;;;1529990;77;743;-65
2021/11/23 02:45:05;;;;;;;;;;;23.60;51.30;;;;;;1528464;77;736;-65
2021/11/23 02:47:07;;;;;;;;;;;23.60;51.30;;;;;;1529110;76;817;-65
2021/11/23 02:49:09;;;;;;;;;;;23.60;51.30;;;;;;1531168;77;1151;-64
2021/11/23 02:53:17;;;;;;;;;;;23.60;51.40;;;;;;1518203;77;885;-67
2021/11/23 02:55:19;;;;;;;;;;;23.60;51.40;;;;;;1527939;77;824;-65
2021/11/23 02:57:25;;;;;;;;;;;23.60;51.60;;;;;;1529829;76;787;-68
2021/11/23 02:59:27;;;;;;;;;;;23.60;51.60;;;;;;1530494;76;1803;-67
2021/11/23 03:01:29;;;;;;;;;;;23.60;51.60;;;;;;1522638;77;1985;-65
2021/11/23 03:03:31;;;;;;;;;;;23.60;51.60;;;;;;1529539;77;790;-64
2021/11/23 03:05:34;;;;;;;;;;;23.60;51.60;;;;;;1531149;77;790;-65
2021/11/23 03:07:35;;;;;;;;;;;23.60;51.50;;;;;;1531383;76;1146;-65
2021/11/23 03:09:37;;;;;;;;;;;23.60;51.50;;;;;;1532595;77;765;-66
2021/11/23 03:11:39;;;;;;;;;;;23.60;51.50;;;;;;1532910;77;745;-65
2021/11/23 03:13:41;;;;;;;;;;;23.60;51.50;;;;;;1516549;76;680;-64
2021/11/23 03:15:43;;;;;;;;;;;23.60;51.50;;;;;;1524431;77;728;-64
2021/11/23 03:17:45;;;;;;;;;;;23.60;51.40;;;;;;1528930;77;1130;-66
2021/11/23 03:19:47;;;;;;;;;;;23.60;51.50;;;;;;1532788;76;691;-66
2021/11/23 03:21:49;;;;;;;;;;;23.60;51.40;;;;;;1530847;76;1940;-66
2021/11/23 03:23:51;;;;;;;;;;;23.50;51.50;;;;;;1529144;77;812;-66
2021/11/23 03:25:53;;;;;;;;;;;23.60;51.40;;;;;;1535024;77;682;-67
2021/11/23 03:27:56;;;;;;;;;;;23.60;51.40;;;;;;1526513;77;1175;-66
2021/11/23 03:29:57;;;;;;;;;;;23.60;51.40;;;;;;1534084;77;770;-68
2021/11/23 03:31:59;;;;;;;;;;;23.60;51.30;;;;;;1530420;76;751;-65
2021/11/23 03:34:01;;;;;;;;;;;23.60;51.30;;;;;;1530676;77;689;-65
2021/11/23 03:36:03;;;;;;;;;;;23.60;51.30;;;;;;1530912;76;700;-65
2021/11/23 03:38:06;;;;;;;;;;;23.60;51.20;;;;;;1529446;76;1124;-65
2021/11/23 03:40:08;;;;;;;;;;;23.60;51.20;;;;;;1529921;77;735;-65
2021/11/23 03:42:10;;;;;;;;;;;23.60;51.10;;;;;;1528658;77;1941;-65
2021/11/23 03:44:11;;;;;;;;;;;23.70;51.30;;;;;;1529161;77;791;-66
2021/11/23 03:46:14;;;;;;;;;;;23.60;51.10;;;;;;1529816;77;813;-65
2021/11/23 03:48:16;;;;;;;;;;;23.60;51.10;;;;;;1520152;77;1127;-64
2021/11/23 03:50:18;;;;;;;;;;;23.70;51.20;;;;;;1530833;76;724;-65
2021/11/23 03:52:20;;;;;;;;;;;23.60;51.00;;;;;;1531416;77;779;-65
2021/11/23 03:54:22;;;;;;;;;;;23.70;51.30;;;;;;1529851;77;791;-65
2021/11/23 03:56:24;;;;;;;;;;;23.70;51.20;;;;;;1529143;77;700;-65
2021/11/23 03:58:26;;;;;;;;;;;23.60;51.10;;;;;;1536191;73;223777;-70
2021/11/23 04:00:28;;;;;;;;;;;23.70;51.30;;;;;;1568672;76;679;-71
2021/11/23 04:02:30;;;;;;;;;;;23.70;51.30;;;;;;1555997;76;1930;-71
2021/11/23 04:04:32;;;;;;;;;;;23.70;51.30;;;;;;1568868;74;784;-70
2021/11/23 04:06:34;;;;;;;;;;;23.70;51.20;;;;;;1569588;74;780;-69
2021/11/23 04:08:36;;;;;;;;;;;23.70;51.20;;;;;;1569907;74;1216;-70
2021/11/23 04:10:38;;;;;;;;;;;23.70;51.20;;;;;;1571568;76;816;-69
2021/11/23 04:12:40;;;;;;;;;;;23.70;51.10;;;;;;1567600;73;221619;-56
2021/11/23 04:14:42;;;;;;;;;;;23.70;51.00;;;;;;1569727;76;702;-56
2021/11/23 04:16:43;;;;;;;;;;;23.70;51.00;;;;;;1565404;75;1198;-55
2021/11/23 04:18:45;;;;;;;;;;;23.70;50.90;;;;;;1551611;76;683;-58
2021/11/23 04:20:47;;;;;;;;;;;23.80;50.80;;;;;;1561885;76;761;-58
2021/11/23 04:22:49;;;;;;;;;;;23.80;50.80;;;;;;1557552;76;1955;-56
2021/11/23 04:24:51;;;;;;;;;;;23.80;50.90;;;;;;1563294;75;538;-56
2021/11/23 04:26:53;;;;;;;;;;;23.70;50.70;;;;;;1564490;76;1129;-57
2021/11/23 04:28:55;;;;;;;;;;;23.80;50.70;;;;;;1562111;76;781;-56
2021/11/23 04:30:57;;;;;;;;;;;23.80;50.80;;;;;;1561643;75;721;-55
2021/11/23 04:32:59;;;;;;;;;;;23.80;50.70;;;;;;1562717;75;720;-58
2021/11/23 04:35:01;;;;;;;;;;;23.70;50.90;;;;;;1563170;75;777;-57
2021/11/23 04:37:03;;;;;;;;;;;23.80;50.70;;;;;;1564636;75;1124;-57
2021/11/23 04:39:07;;;;;;;;;;;23.80;50.70;;;;;;1564160;75;801;-57
2021/11/23 04:41:08;;;;;;;;;;;23.90;50.80;;;;;;1549350;75;1442;-57
2021/11/23 04:43:10;;;;;;;;;;;23.90;50.60;;;;;;1551457;75;1933;-57
2021/11/23 04:45:13;;;;;;;;;;;23.90;50.60;;;;;;1558127;75;761;-56
2021/11/23 04:47:15;;;;;;;;;;;23.80;50.50;;;;;;1551169;76;1127;-56
2021/11/23 04:49:17;;;;;;;;;;;23.80;50.50;;;;;;1556759;76;773;-57
2021/11/23 04:51:19;;;;;;;;;;;23.80;50.50;;;;;;1563134;75;689;-57
2021/11/23 04:53:21;;;;;;;;;;;23.80;50.60;;;;;;1563866;76;728;-57
2021/11/23 04:55:23;;;;;;;;;;;23.80;50.50;;;;;;1559857;75;782;-56
2021/11/23 04:57:25;;;;;;;;;;;23.80;50.50;;;;;;1563008;74;1150;-57
2021/11/23 04:59:27;;;;;;;;;;;23.80;50.50;;;;;;1557450;76;707;-57
2021/11/23 05:01:28;;;;;;;;;;;23.80;50.50;;;;;;1565152;76;734;-57
2021/11/23 05:03:30;;;;;;;;;;;23.80;50.60;;;;;;1563104;75;1942;-57
2021/11/23 05:05:32;;;;;;;;;;;23.80;50.60;;;;;;1564012;76;1062;-58
2021/11/23 05:07:34;;;;;;;;;;;23.80;50.60;;;;;;1564295;76;710;-57
2021/11/23 05:09:36;;;;;;;;;;;23.80;50.60;;;;;;1556583;75;769;-57
2021/11/23 05:11:40;;;;;;;;;;;23.80;50.60;;;;;;1551250;74;681;-57
2021/11/23 05:13:41;;;;;;;;;;;23.80;50.50;;;;;;1560461;76;1767;-57
2021/11/23 05:15:43;;;;;;;;;;;23.80;50.60;;;;;;1563586;75;1143;-56
2021/11/23 05:17:45;;;;;;;;;;;23.80;50.60;;;;;;1564797;76;723;-57
2021/11/23 05:19:47;;;;;;;;;;;23.80;50.60;;;;;;1563371;75;781;-58
2021/11/23 05:21:49;;;;;;;;;;;23.80;50.50;;;;;;1563004;75;1938;-57
2021/11/23 05:23:51;;;;;;;;;;;23.80;50.50;;;;;;1565759;76;662;-56
2021/11/23 05:25:56;;;;;;;;;;;23.80;50.50;;;;;;1560665;74;1145;-55
2021/11/23 05:27:56;;;;;;;;;;;23.80;50.50;;;;;;1563297;76;1699;-56
2021/11/23 05:29:59;;;;;;;;;;;23.80;50.50;;;;;;1563683;76;718;-57
2021/11/23 05:32:01;;;;;;;;;;;23.70;50.60;;;;;;1563494;76;735;-57
2021/11/23 05:34:03;;;;;;;;;;;23.70;50.50;;;;;;1563341;75;800;-59
2021/11/23 05:36:05;;;;;;;;;;;23.80;50.50;;;;;;1564658;76;1146;-56
2021/11/23 05:38:06;;;;;;;;;;;23.80;50.50;;;;;;1563105;75;704;-57
2021/11/23 05:40:09;;;;;;;;;;;23.80;50.50;;;;;;1561981;75;690;-58
2021/11/23 05:42:11;;;;;;;;;;;23.70;50.50;;;;;;1563203;75;1915;-57
2021/11/23 05:44:13;;;;;;;;;;;23.70;50.50;;;;;;1564695;75;789;-56
2021/11/23 05:46:14;;;;;;;;;;;23.80;50.50;;;;;;1563826;75;1130;-56
2021/11/23 05:48:16;;;;;;;;;;;23.70;50.50;;;;;;1559129;76;786;-56
2021/11/23 05:50:18;;;;;;;;;;;23.70;50.50;;;;;;1559708;74;753;-57
2021/11/23 05:52:20;;;;;;;;;;;23.70;50.60;;;;;;1550848;75;735;-57
2021/11/23 05:54:22;;;;;;;;;;;23.80;50.60;;;;;;1557816;75;662;-58
2021/11/23 05:56:24;;;;;;;;;;;23.80;50.60;;;;;;1554631;75;1135;-58
2021/11/23 05:58:26;;;;;;;;;;;23.80;50.70;;;;;;1558839;75;754;-57
2021/11/23 06:00:28;;;;;;;;;;;23.80;50.60;;;;;;1560705;75;667;-57
2021/11/23 06:02:30;;;;;;;;;;;23.90;50.70;;;;;;1558896;75;1936;-57
2021/11/23 06:04:31;;;;;;;;;;;23.80;50.70;;;;;;1562367;75;758;-57
2021/11/23 06:06:33;;;;;;;;;;;23.80;50.70;;;;;;1560758;75;1161;-58
2021/11/23 06:08:35;;;;;;;;;;;23.80;50.70;;;;;;1559314;75;713;-57
2021/11/23 06:10:37;;;;;;;;;;;23.80;50.70;;;;;;1543317;75;716;-59
2021/11/23 06:12:39;;;;;;;;;;;23.90;50.80;;;;;;1551372;75;806;-58
2021/11/23 06:14:41;;;;;;;;;;;23.70;50.70;;;;;;1553755;75;768;-57
2021/11/23 06:16:47;;;;;;;;;;;23.90;50.80;;;;;;1558774;75;1153;-58
2021/11/23 06:18:46;;;;;;;;;;;23.80;50.70;;;;;;1557415;75;1543;-58
2021/11/23 06:20:49;;;;;;;;;;;23.70;50.70;;;;;;1563174;75;1090;-55
2021/11/23 06:22:53;;;;;;;;;;;23.80;50.70;;;;;;1550613;75;1938;-57
2021/11/23 06:24:54;;;;;;;;;;;23.90;50.90;;;;;;1555142;75;1697;-57
2021/11/23 06:26:56;;;;;;;;;;;23.90;50.90;;;;;;1558721;75;1122;-57
2021/11/23 06:28:58;;;;;;;;;;;23.80;50.80;;;;;;1563393;75;734;-58
2021/11/23 06:31:00;;;;;;;;;;;23.80;50.80;;;;;;1559327;75;707;-57
2021/11/23 06:33:02;;;;;;;;;;;23.80;50.90;;;;;;1556028;75;783;-57
2021/11/23 06:35:04;;;;;;;;;;;23.80;50.80;;;;;;1555681;75;697;-57
2021/11/23 06:37:06;;;;;;;;;;;23.90;50.90;;;;;;1556027;75;1134;-57
2021/11/23 06:39:08;;;;;;;;;;;23.80;50.80;;;;;;1558239;75;714;-57
2021/11/23 06:41:10;;;;;;;;;;;23.90;50.80;;;;;;1563410;75;715;-56
2021/11/23 06:43:11;;;;;;;;;;;23.90;51.00;;;;;;1560800;75;1914;-56
2021/11/23 06:45:13;;;;;;;;;;;23.80;50.90;;;;;;1543152;75;684;-57
2021/11/23 06:47:15;;;;;;;;;;;23.80;50.80;;;;;;1560585;75;1059;-57
2021/11/23 06:49:17;;;;;;;;;;;23.90;51.00;;;;;;1549875;75;710;-56
2021/11/23 06:51:19;;;;;;;;;;;23.80;50.80;;;;;;1558531;75;695;-57
2021/11/23 06:53:21;;;;;;;;;;;23.70;50.80;;;;;;1554766;75;774;-57
2021/11/23 06:55:23;;;;;;;;;;;23.80;50.70;;;;;;1553661;75;720;-56
2021/11/23 06:57:25;;;;;;;;;;;23.70;50.70;;;;;;1556221;75;1154;-56
2021/11/23 06:59:27;;;;;;;;;;;23.80;50.70;;;;;;1559919;75;660;-58
2021/11/23 07:01:30;;;;;;;;;;;23.90;50.80;;;;;;1557027;75;731;-56
2021/11/23 07:03:32;;;;;;;;;;;23.80;50.70;;;;;;1553657;75;1903;-57
2021/11/23 07:05:33;;;;;;;;;;;23.90;50.90;;;;;;1562339;75;1182;-56
2021/11/23 07:07:35;;;;;;;;;;;23.80;50.80;;;;;;1563513;76;979;-58
2021/11/23 07:09:37;;;;;;;;;;;23.90;50.90;;;;;;1563641;76;633;-58
2021/11/23 07:11:39;;;;;;;;;;;23.80;50.80;;;;;;1563195;75;748;-56
2021/11/23 07:13:41;;;;;;;;;;;23.90;51.00;;;;;;1560146;75;786;-56
2021/11/23 07:15:44;;;;;;;;;;;23.90;51.00;;;;;;1564218;75;1150;-59
2021/11/23 07:17:45;;;;;;;;;;;23.90;50.80;;;;;;1559244;76;729;-57
2021/11/23 07:19:49;;;;;;;;;;;23.90;50.70;;;;;;1563364;76;744;-58
2021/11/23 07:21:51;;;;;;;;;;;23.90;50.60;;;;;;1561664;75;720;-58
2021/11/23 07:23:53;;;;;;;;;;;23.90;50.70;;;;;;1548570;75;1941;-58
2021/11/23 07:25:55;;;;;;;;;;;23.90;50.70;;;;;;1552735;75;1146;-59
2021/11/23 07:28:00;;;;;;;;;;;23.90;50.60;;;;;;1561996;75;703;-57
2021/11/23 07:30:00;;;;;;;;;;;23.90;50.50;;;;;;1557968;75;1616;-58
2021/11/23 07:32:02;;;;;;;;;;;23.80;50.50;;;;;;1560548;75;808;-59
2021/11/23 07:34:05;;;;;;;;;;;23.90;50.50;;;;;;1559227;75;717;-59
2021/11/23 07:36:06;;;;;;;;;;;23.70;50.50;;;;;;1556315;75;1150;-58
2021/11/23 07:38:08;;;;;;;;;;;23.80;50.50;;;;;;1555565;75;806;-58
2021/11/23 07:40:11;;;;;;;;;;;23.80;50.40;;;;;;1553060;75;716;-57
2021/11/23 07:42:13;;;;;;;;;;;23.70;50.40;;;;;;1559198;75;769;-57
2021/11/23 07:44:14;;;;;;;;;;;23.70;50.50;;;;;;1561560;75;1952;-58
2021/11/23 07:46:16;;;;;;;;;;;23.80;50.50;;;;;;1556009;74;1109;-57
2021/11/23 07:48:18;;;;;;;;;;;23.80;50.50;;;;;;1564986;76;735;-57
2021/11/23 07:50:20;;;;;;;;;;;23.70;50.50;;;;;;1560872;75;727;-57
2021/11/23 07:52:22;;;;;;;;;;;23.70;50.40;;;;;;1563997;75;695;-56
2021/11/23 07:54:24;;;;;;;;;;;23.70;50.30;;;;;;1556793;75;854;-57
2021/11/23 07:56:26;;;;;;;;;;;23.70;50.30;;;;;;1563680;76;1120;-57
2021/11/23 07:58:28;;;;;;;;;;;23.70;50.20;;;;;;1560111;76;677;-57
2021/11/23 08:00:30;;;;;;;;;;;23.70;50.20;;;;;;1563597;76;794;-57
2021/11/23 08:02:32;;;;;;;;;;;23.70;50.20;;;;;;1562010;75;695;-57
2021/11/23 08:04:34;;;;;;;;;;;23.70;50.10;;;;;;1563415;75;1946;-58
2021/11/23 08:06:36;;;;;;;;;;;23.70;50.20;;;;;;1550171;75;1187;-57
2021/11/23 08:08:39;;;;;;;;;;;23.60;50.00;;;;;;1560422;76;719;-58
2021/11/23 08:10:41;;;;;;;;;;;23.70;50.10;;;;;;1559591;75;710;-58
2021/11/23 08:12:42;;;;;;;;;;;23.60;50.00;;;;;;1547748;75;806;-58
2021/11/23 08:14:44;;;;;;;;;;;23.70;50.20;;;;;;1550274;75;827;-57
2021/11/23 08:16:46;;;;;;;;;;;23.70;50.20;;;;;;1558437;75;1135;-57
2021/11/23 08:18:48;;;;;;;;;;;23.60;50.00;;;;;;1552370;75;724;-57
2021/11/23 08:20:50;;;;;;;;;;;23.60;50.00;;;;;;1549482;75;724;-57
2021/11/23 08:22:52;;;;;;;;;;;23.70;50.20;;;;;;1553936;75;1932;-57
2021/11/23 08:24:54;;;;;;;;;;;23.60;50.20;;;;;;1553607;75;738;-57
2021/11/23 08:26:58;;;;;;;;;;;23.70;50.40;;;;;;1560812;75;1087;-56
2021/11/23 08:28:59;;;;;;;;;;;23.70;50.50;;;;;;1552211;75;1434;-57
2021/11/23 08:31:01;;;;;;;;;;;23.70;50.70;;;;;;1543136;75;771;-57
2021/11/23 08:33:03;;;;;;;;;;;23.70;50.70;;;;;;1547987;75;762;-57
2021/11/23 08:35:05;;;;;;;;;;;23.60;50.50;;;;;;1556809;75;706;-57
2021/11/23 08:37:07;;;;;;;;;;;23.60;50.60;;;;;;1555889;75;1077;-57
2021/11/23 08:39:09;;;;;;;;;;;23.60;50.60;;;;;;1554386;75;674;-57
2021/11/23 08:41:11;;;;;;;;;;;23.60;50.60;;;;;;1563375;75;688;-56
2021/11/23 08:43:13;;;;;;;;;;;23.70;50.70;;;;;;1562543;75;1939;-57
2021/11/23 08:45:15;;;;;;;;;;;23.60;50.60;;;;;;1557296;75;740;-57
2021/11/23 08:47:17;;;;;;;;;;;23.60;50.50;;;;;;1561554;75;1098;-57
2021/11/23 08:49:18;;;;;;;;;;;23.60;50.50;;;;;;1553837;75;638;-57
2021/11/23 08:51:29;;;;;;;;;;;23.60;50.50;;;;;;1554687;75;714;-58
2021/11/23 08:53:24;;;;;;;;;;;23.60;50.50;;;;;;1553805;75;1586;-58
2021/11/23 08:55:26;;;;;;;;;;;23.60;50.50;;;;;;1549451;75;786;-57
2021/11/23 08:57:28;;;;;;;;;;;23.60;50.50;;;;;;1559517;75;724;-58
2021/11/23 08:59:33;;;;;;;;;;;23.60;50.50;;;;;;1538788;75;750;-56
2021/11/23 09:01:33;;;;;;;;;;;23.60;50.60;;;;;;1552511;75;1566;-56
2021/11/23 09:03:38;;;;;;;;;;;23.60;50.50;;;;;;1561187;75;1954;-57
2021/11/23 09:05:39;;;;;;;;;;;23.60;50.60;;;;;;1560376;76;1608;-57
2021/11/23 09:07:41;;;;;;;;;;;23.60;50.60;;;;;;1562753;75;723;-56
2021/11/23 09:09:44;;;;;;;;;;;23.50;50.60;;;;;;1563407;75;622;-57
2021/11/23 09:11:45;;;;;;;;;;;23.50;50.60;;;;;;1561938;76;1044;-58
2021/11/23 09:13:47;;;;;;;;;;;23.60;50.60;;;;;;1556917;75;761;-59
2021/11/23 09:15:49;;;;;;;;;;;23.60;50.70;;;;;;1546555;75;1154;-56
2021/11/23 09:17:51;;;;;;;;;;;23.60;50.70;;;;;;1548333;75;735;-56
2021/11/23 09:19:53;;;;;;;;;;;23.50;50.70;;;;;;1547450;75;757;-57
2021/11/23 09:21:55;;;;;;;;;;;23.60;50.80;;;;;;1553281;75;767;-59
2021/11/23 09:23:57;;;;;;;;;;;23.60;50.70;;;;;;1549318;75;1938;-57
2021/11/23 09:25:59;;;;;;;;;;;23.60;51.00;;;;;;1556310;76;1153;-56
2021/11/23 09:28:01;;;;;;;;;;;23.60;51.20;;;;;;1561643;75;786;-57
2021/11/23 09:30:04;;;;;;;;;;;23.60;49.50;;;;;;1563604;75;754;-56
2021/11/23 09:32:07;;;;;;;;;;;23.50;48.20;;;;;;1552758;75;708;-57
2021/11/23 09:34:09;;;;;;;;;;;23.60;47.80;;;;;;1558078;75;694;-58
2021/11/23 09:36:10;;;;;;;;;;;23.50;47.20;;;;;;1556529;75;1110;-57
2021/11/23 09:38:12;;;;;;;;;;;23.50;46.90;;;;;;1561220;75;659;-57
2021/11/23 09:40:14;;;;;;;;;;;23.50;46.80;;;;;;1558845;75;679;-56
2021/11/23 09:42:16;;;;;;;;;;;23.40;46.30;;;;;;1557968;75;787;-57
2021/11/23 09:44:18;;;;;;;;;;;23.30;46.30;;;;;;1559715;75;1973;-56
2021/11/23 09:46:20;;;;;;;;;;;23.30;46.10;;;;;;1555428;75;1149;-57
2021/11/23 09:48:22;;;;;;;;;;;23.30;45.90;;;;;;1561984;75;794;-58
2021/11/23 09:50:24;;;;;;;;;;;23.30;45.70;;;;;;1555347;75;719;-59
2021/11/23 09:52:26;;;;;;;;;;;23.30;47.40;;;;;;1558029;75;722;-57
2021/11/23 09:54:28;;;;;;;;;;;23.30;48.10;;;;;;1554945;75;791;-57
2021/11/23 09:56:30;;;;;;;;;;;23.40;48.20;;;;;;1562503;75;1204;-57
2021/11/23 09:58:32;;;;;;;;;;;23.40;48.50;;;;;;1546502;74;224699;-71
2021/11/23 10:00:35;;;;;;;;;;;23.50;48.70;;;;;;1504151;78;719;-72
2021/11/23 10:02:37;;;;;;;;;;;23.50;48.80;;;;;;1515610;76;1215;-72
2021/11/23 10:04:39;;;;;;;;;;;23.50;49.00;;;;;;1528467;76;1918;-73
2021/11/23 10:06:54;;;;;;;;;;;23.50;49.20;;;;;;1497029;77;1153;-72
2021/11/23 10:08:56;;;;;;;;;;;23.50;49.40;;;;;;1526715;76;1042;-72
2021/11/23 10:10:58;;;;;;;;;;;23.30;49.60;;;;;;1528920;76;767;-73
2021/11/23 10:13:00;;;;;;;;;;;23.30;49.80;;;;;;1531952;76;1146;-73
2021/11/23 10:15:18;;;;;;;;;;;23.30;50.00;;;;;;1528915;76;746;-73
2021/11/23 10:17:27;;;;;;;;;;;23.30;50.20;;;;;;1532155;76;733;-75
2021/11/23 10:19:37;;;;;;;;;;;23.30;50.30;;;;;;1526133;76;732;-72
2021/11/23 10:21:49;;;;;;;;;;;23.20;50.40;;;;;;1518478;76;922;-73
2021/11/23 10:23:55;;;;;;;;;;;23.30;50.50;;;;;;1526127;76;1943;-72
2021/11/23 10:26:08;;;;;;;;;;;23.30;50.50;;;;;;1528979;76;1164;-72
2021/11/23 10:28:10;;;;;;;;;;;23.30;50.50;;;;;;1495827;77;1631;-72
2021/11/23 10:30:12;;;;;;;;;;;23.30;50.40;;;;;;1525537;76;757;-71
2021/11/23 10:32:13;;;;;;;;;;;23.30;50.50;;;;;;1530816;76;1155;-73
2021/11/23 10:34:16;;;;;;;;;;;23.40;50.40;;;;;;1533242;76;717;-73
2021/11/23 10:36:19;;;;;;;;;;;23.30;50.50;;;;;;1532882;76;810;-72
2021/11/23 10:38:21;;;;;;;;;;;23.40;50.30;;;;;;1526085;75;698;-71
2021/11/23 10:40:25;;;;;;;;;;;23.50;50.20;;;;;;1522336;76;735;-72
2021/11/23 10:42:33;;;;;;;;;;;23.60;49.90;;;;;;1525635;76;1176;-72
2021/11/23 10:44:35;;;;;;;;;;;23.70;49.70;;;;;;1510350;76;1910;-72
2021/11/23 10:46:37;;;;;;;;;;;23.80;49.40;;;;;;1526880;76;693;-73
2021/11/23 10:48:39;;;;;;;;;;;23.90;49.40;;;;;;1527793;76;710;-72
2021/11/23 10:50:42;;;;;;;;;;;23.90;49.30;;;;;;1527878;76;672;-72
2021/11/23 10:52:45;;;;;;;;;;;23.80;49.10;;;;;;1518535;76;1094;-72
2021/11/23 10:54:47;;;;;;;;;;;23.90;49.20;;;;;;1530494;76;709;-72
2021/11/23 10:56:56;;;;;;;;;;;23.90;49.20;;;;;;1523198;76;674;-69
2021/11/23 10:58:58;;;;;;;;;;;23.90;49.10;;;;;;1557109;73;636;-70
2021/11/23 11:00:59;;;;;;;;;;;23.90;49.10;;;;;;1564514;74;638;-72
2021/11/23 11:03:02;;;;;;;;;;;23.90;49.10;;;;;;1563527;74;767;-69
2021/11/23 11:05:04;;;;;;;;;;;23.90;49.10;;;;;;1557308;75;1904;-71
2021/11/23 11:07:06;;;;;;;;;;;23.90;49.20;;;;;;1566120;75;1214;-70
2021/11/23 11:09:08;;;;;;;;;;;23.90;49.30;;;;;;1552729;75;787;-69
2021/11/23 11:11:16;;;;;;;;;;;23.80;49.20;;;;;;1562456;75;662;-69
2021/11/23 11:13:17;;;;;;;;;;;23.80;49.30;;;;;;1542839;75;1397;-70
2021/11/23 11:15:20;;;;;;;;;;;23.80;49.30;;;;;;1555865;75;958;-70
2021/11/23 11:17:24;;;;;;;;;;;23.80;49.40;;;;;;1550945;74;1136;-69
2021/11/23 11:19:27;;;;;;;;;;;23.80;49.40;;;;;;1560430;75;738;-70
2021/11/23 11:21:29;;;;;;;;;;;23.80;49.50;;;;;;1556308;75;1089;-70
2021/11/23 11:23:32;;;;;;;;;;;23.70;49.50;;;;;;1552093;75;736;-70
2021/11/23 11:25:48;;;;;;;;;;;23.70;49.50;;;;;;1551705;75;1925;-70
2021/11/23 11:27:50;;;;;;;;;;;23.80;49.50;;;;;;1514257;76;1292;-70
2021/11/23 11:29:52;;;;;;;;;;;23.70;49.50;;;;;;1551191;75;708;-70
2021/11/23 11:31:53;;;;;;;;;;;23.60;49.60;;;;;;1554500;75;741;-71
2021/11/23 11:34:14;;;;;;;;;;;23.70;50.00;;;;;;1565177;75;569;-70
2021/11/23 11:36:17;;;;;;;;;;;23.70;50.00;;;;;;1552632;75;723;-69
2021/11/23 11:38:36;;;;;;;;;;;23.70;49.90;;;;;;1551048;75;1129;-70
2021/11/23 11:40:35;;;;;;;;;;;23.70;50.10;;;;;;1549620;75;1179;-70
2021/11/23 11:42:39;;;;;;;;;;;23.60;49.80;;;;;;1556061;75;1056;-71
2021/11/23 11:44:48;;;;;;;;;;;23.60;49.80;;;;;;1549142;75;1912;-70
2021/11/23 11:47:01;;;;;;;;;;;23.60;49.80;;;;;;1549702;75;1093;-69
2021/11/23 11:49:04;;;;;;;;;;;23.60;49.80;;;;;;1561010;75;767;-70
2021/11/23 11:51:10;;;;;;;;;;;23.70;50.00;;;;;;1543971;75;732;-71
2021/11/23 11:53:14;;;;;;;;;;;23.60;49.80;;;;;;1546056;75;698;-71
2021/11/23 11:55:16;;;;;;;;;;;23.60;49.80;;;;;;1551571;75;1010;-71
2021/11/23 11:57:28;;;;;;;;;;;23.70;49.90;;;;;;1549723;75;1157;-70
2021/11/23 11:59:32;;;;;;;;;;;23.60;49.80;;;;;;1551434;75;1038;-70
2021/11/23 12:01:34;;;;;;;;;;;23.60;49.80;;;;;;1559065;75;723;-70
2021/11/23 12:03:37;;;;;;;;;;;23.60;49.80;;;;;;1558225;75;737;-70
2021/11/23 12:05:50;;;;;;;;;;;23.60;49.80;;;;;;1552327;75;1908;-70
2021/11/23 12:07:52;;;;;;;;;;;23.60;49.80;;;;;;1550149;75;1181;-69
2021/11/23 12:09:56;;;;;;;;;;;23.60;49.80;;;;;;1551331;75;747;-69
2021/11/23 12:12:11;;;;;;;;;;;23.60;49.80;;;;;;1551942;75;1202;-70